createdAt,value
2023-04-19T00:00:45.234Z,63.46
2023-04-19T00:03:12.129Z,63.00
2023-04-19T00:05:39.576Z,62.92
2023-04-19T00:08:06.403Z,63.19
2023-04-19T00:10:33.128Z,62.92
2023-04-19T00:12:59.653Z,62.91
2023-04-19T00:15:26.292Z,63.03
2023-04-19T00:17:53.044Z,63.13
2023-04-19T00:20:20.287Z,62.89
2023-04-19T00:22:47.118Z,62.92
2023-04-19T00:25:13.759Z,62.97
2023-04-19T00:27:40.319Z,62.85
2023-04-19T00:30:06.858Z,62.86
2023-04-19T00:32:33.442Z,63.10
2023-04-19T00:35:00.359Z,63.19
2023-04-19T00:37:27.747Z,63.02
2023-04-19T00:39:54.446Z,63.23
2023-04-19T00:42:21.128Z,62.68
2023-04-19T00:44:47.988Z,62.92
2023-04-19T00:47:14.528Z,62.74
2023-04-19T00:49:41.200Z,63.02
2023-04-19T00:52:07.639Z,62.64
2023-04-19T00:54:34.149Z,62.81
2023-04-19T00:57:00.616Z,62.89
2023-04-19T00:59:27.061Z,62.58
2023-04-19T01:01:53.687Z,62.55
2023-04-19T01:04:20.946Z,62.58
2023-04-19T01:06:49.325Z,62.77
2023-04-19T01:09:16.378Z,62.82
2023-04-19T01:11:43.632Z,62.53
2023-04-19T01:14:10.416Z,62.75
2023-04-19T01:16:37.099Z,62.58
2023-04-19T01:19:03.654Z,62.90
2023-04-19T01:21:30.774Z,62.33
2023-04-19T01:23:57.291Z,62.55
2023-04-19T01:26:23.857Z,62.63
2023-04-19T01:28:50.353Z,62.44
2023-04-19T01:31:16.862Z,62.60
2023-04-19T01:33:43.353Z,62.60
2023-04-19T01:36:09.870Z,62.33
2023-04-19T01:38:36.401Z,62.36
2023-04-19T01:41:02.928Z,62.45
2023-04-19T01:43:29.771Z,62.51
2023-04-19T01:45:56.250Z,62.53
2023-04-19T01:48:23.086Z,62.56
2023-04-19T01:50:49.574Z,62.46
2023-04-19T01:53:16.074Z,62.63
2023-04-19T01:55:42.768Z,62.27
2023-04-19T01:58:09.229Z,62.34
2023-04-19T02:00:35.926Z,62.53
2023-04-19T02:03:04.140Z,62.69
2023-04-19T02:05:30.766Z,62.69
2023-04-19T02:07:57.699Z,62.42
2023-04-19T02:10:24.307Z,62.51
2023-04-19T02:12:50.821Z,62.39
2023-04-19T02:15:17.288Z,62.51
2023-04-19T02:17:44.298Z,62.57
2023-04-19T02:20:11.318Z,62.71
2023-04-19T02:22:38.239Z,62.33
2023-04-19T02:25:05.129Z,62.31
2023-04-19T02:27:31.929Z,62.49
2023-04-19T02:29:58.566Z,62.14
2023-04-19T02:32:25.173Z,62.58
2023-04-19T02:34:51.717Z,62.16
2023-04-19T02:37:18.367Z,62.15
2023-04-19T02:39:44.965Z,62.32
2023-04-19T02:42:11.618Z,62.08
2023-04-19T02:44:38.064Z,62.33
2023-04-19T02:47:04.618Z,61.90
2023-04-19T02:49:31.337Z,62.31
2023-04-19T02:51:58.074Z,62.00
2023-04-19T02:54:24.620Z,62.02
2023-04-19T02:56:51.153Z,61.80
2023-04-19T02:59:17.698Z,61.91
2023-04-19T03:01:44.286Z,62.18
2023-04-19T03:04:10.803Z,61.83
2023-04-19T03:06:37.306Z,62.23
2023-04-19T03:09:03.756Z,61.84
2023-04-19T03:11:30.309Z,61.76
2023-04-19T03:13:56.749Z,61.54
2023-04-19T03:16:23.699Z,61.77
2023-04-19T03:18:50.555Z,61.90
2023-04-19T03:21:17.114Z,61.92
2023-04-19T03:23:43.610Z,61.99
2023-04-19T03:26:10.113Z,62.04
2023-04-19T03:28:36.656Z,61.89
2023-04-19T03:31:03.273Z,61.78
2023-04-19T03:33:30.054Z,61.99
2023-04-19T03:35:56.682Z,61.77
2023-04-19T03:38:23.200Z,61.68
2023-04-19T03:40:49.772Z,61.78
2023-04-19T03:43:16.279Z,61.55
2023-04-19T03:45:43.132Z,61.70
2023-04-19T03:48:09.607Z,61.50
2023-04-19T03:50:36.276Z,61.54
2023-04-19T03:53:02.830Z,61.27
2023-04-19T03:55:29.379Z,61.31
2023-04-19T03:57:55.897Z,61.30
2023-04-19T04:00:22.379Z,61.29
2023-04-19T04:02:51.444Z,61.44
2023-04-19T04:05:18.325Z,61.29
2023-04-19T04:07:44.862Z,61.32
2023-04-19T04:10:11.354Z,61.43
2023-04-19T04:12:37.951Z,61.26
2023-04-19T04:15:04.594Z,61.47
2023-04-19T04:17:31.317Z,61.09
2023-04-19T04:19:57.817Z,61.02
2023-04-19T04:22:24.364Z,60.96
2023-04-19T04:24:51.005Z,60.97
2023-04-19T04:27:17.502Z,61.10
2023-04-19T04:29:44.253Z,61.00
2023-04-19T04:32:11.371Z,61.00
2023-04-19T04:34:38.085Z,60.81
2023-04-19T04:37:04.576Z,61.16
2023-04-19T04:39:31.225Z,60.95
2023-04-19T04:41:57.768Z,60.98
2023-04-19T04:44:24.663Z,61.30
2023-04-19T04:46:51.306Z,60.97
2023-04-19T04:49:17.845Z,60.79
2023-04-19T04:51:44.509Z,60.87
2023-04-19T04:54:11.097Z,60.67
2023-04-19T04:56:37.714Z,60.77
2023-04-19T04:59:04.240Z,60.92
2023-04-19T05:01:30.687Z,60.64
2023-04-19T05:03:57.900Z,60.71
2023-04-19T05:06:24.578Z,60.92
2023-04-19T05:08:51.119Z,60.67
2023-04-19T05:11:17.597Z,60.58
2023-04-19T05:13:44.366Z,60.80
2023-04-19T05:16:10.935Z,60.67
2023-04-19T05:18:37.785Z,60.46
2023-04-19T05:21:05.000Z,60.86
2023-04-19T05:23:31.873Z,60.57
2023-04-19T05:25:58.355Z,60.47
2023-04-19T05:28:24.840Z,60.27
2023-04-19T05:30:51.606Z,60.39
2023-04-19T05:33:18.309Z,60.52
2023-04-19T05:35:45.173Z,60.36
2023-04-19T05:38:11.993Z,61.10
2023-04-19T05:40:38.431Z,60.67
2023-04-19T05:43:05.014Z,60.79
2023-04-19T05:45:31.705Z,60.05
2023-04-19T05:47:58.322Z,60.58
2023-04-19T05:50:25.084Z,60.24
2023-04-19T05:52:51.664Z,60.35
2023-04-19T05:55:18.335Z,60.22
2023-04-19T05:57:45.303Z,60.00
2023-04-19T06:00:12.069Z,60.43
2023-04-19T06:02:38.672Z,60.27
2023-04-19T06:05:09.999Z,60.21
2023-04-19T06:07:43.228Z,59.89
2023-04-19T06:10:13.400Z,60.09
2023-04-19T06:12:40.027Z,60.08
2023-04-19T06:15:06.583Z,60.02
2023-04-19T06:17:33.284Z,60.46
2023-04-19T06:19:59.811Z,60.24
2023-04-19T06:22:26.285Z,60.16
2023-04-19T06:24:52.994Z,60.01
2023-04-19T06:27:19.531Z,60.24
2023-04-19T06:29:46.001Z,59.89
2023-04-19T06:32:12.790Z,59.96
2023-04-19T06:34:39.486Z,60.17
2023-04-19T06:37:06.162Z,59.92
2023-04-19T06:39:32.654Z,60.21
2023-04-19T06:41:59.614Z,60.30
2023-04-19T06:44:25.987Z,59.95
2023-04-19T06:46:52.571Z,60.13
2023-04-19T06:49:19.086Z,60.31
2023-04-19T06:51:45.613Z,60.12
2023-04-19T06:54:12.482Z,60.14
2023-04-19T06:56:39.682Z,60.28
2023-04-19T06:59:06.198Z,60.13
2023-04-19T07:01:32.899Z,60.51
2023-04-19T07:03:59.628Z,60.64
2023-04-19T07:06:26.189Z,60.50
2023-04-19T07:08:52.907Z,60.87
2023-04-19T07:11:20.485Z,60.56
2023-04-19T07:13:48.671Z,60.96
2023-04-19T07:16:15.200Z,60.49
2023-04-19T07:18:41.967Z,60.61
2023-04-19T07:21:08.402Z,60.57
2023-04-19T07:23:35.254Z,60.91
2023-04-19T07:26:01.646Z,60.47
2023-04-19T07:28:28.129Z,60.62
2023-04-19T07:30:54.566Z,60.75
2023-04-19T07:33:20.983Z,60.84
2023-04-19T07:35:47.733Z,60.55
2023-04-19T07:38:14.123Z,60.40
2023-04-19T07:40:41.012Z,60.33
2023-04-19T07:43:07.297Z,60.42
2023-04-19T07:45:33.796Z,60.69
2023-04-19T07:48:00.252Z,60.36
2023-04-19T07:50:26.650Z,60.66
2023-04-19T07:52:53.043Z,60.74
2023-04-19T07:55:19.918Z,60.86
2023-04-19T07:57:46.357Z,60.62
2023-04-19T08:00:12.654Z,60.45
2023-04-19T08:02:39.317Z,60.79
2023-04-19T08:05:06.171Z,60.54
2023-04-19T08:07:32.819Z,60.47
2023-04-19T08:09:59.137Z,60.77
2023-04-19T08:12:35.135Z,60.65
2023-04-19T08:15:19.670Z,60.64
2023-04-19T08:17:51.742Z,60.50
2023-04-19T08:20:18.135Z,60.59
2023-04-19T08:22:44.565Z,60.84
2023-04-19T08:25:10.966Z,60.88
2023-04-19T08:27:37.315Z,60.67
2023-04-19T08:30:03.674Z,60.50
2023-04-19T08:32:30.254Z,60.49
2023-04-19T08:34:56.684Z,60.77
2023-04-19T08:37:23.049Z,60.51
2023-04-19T08:39:49.488Z,60.60
2023-04-19T08:42:28.811Z,60.67
2023-04-19T08:48:00.780Z,60.68
2023-04-19T08:50:33.252Z,60.34
2023-04-19T08:53:09.056Z,60.60
2023-04-19T08:56:06.992Z,60.43
2023-04-19T08:58:46.578Z,60.43
2023-04-19T09:01:31.093Z,60.66
2023-04-19T09:04:10.176Z,60.58
2023-04-19T09:06:43.752Z,60.44
2023-04-19T09:09:16.953Z,60.32
2023-04-19T09:11:51.110Z,60.56
2023-04-19T09:14:17.516Z,60.62
2023-04-19T09:16:43.921Z,60.69
2023-04-19T09:19:23.360Z,60.67
2023-04-19T09:21:51.103Z,60.50
2023-04-19T09:24:17.462Z,60.85
2023-04-19T09:26:43.825Z,60.79
2023-04-19T09:29:11.102Z,60.81
2023-04-19T09:34:07.829Z,60.68
2023-04-19T09:36:34.688Z,60.75
2023-04-19T09:39:01.003Z,60.42
2023-04-19T09:41:27.506Z,60.75
2023-04-19T09:44:11.741Z,60.48
2023-04-19T09:46:40.644Z,60.67
2023-04-19T09:49:21.216Z,60.53
2023-04-19T09:51:53.869Z,60.85
2023-04-19T09:54:20.219Z,60.55
2023-04-19T09:56:47.019Z,60.74
2023-04-19T09:59:20.649Z,60.74
2023-04-19T10:01:47.940Z,60.88
2023-04-19T10:04:25.864Z,60.45
2023-04-19T10:07:25.333Z,60.84
2023-04-19T10:09:52.913Z,60.81
2023-04-19T10:14:57.594Z,60.66
2023-04-19T10:17:23.932Z,60.50
2023-04-19T10:19:50.429Z,60.51
2023-04-19T10:22:16.796Z,60.58
2023-04-19T10:24:44.656Z,60.44
2023-04-19T10:27:11.948Z,60.47
2023-04-19T10:29:38.551Z,60.47
2023-04-19T10:32:04.943Z,60.61
2023-04-19T10:34:31.915Z,60.39
2023-04-19T10:36:58.365Z,60.01
2023-04-19T10:39:25.028Z,60.49
2023-04-19T10:41:51.606Z,60.49
2023-04-19T10:44:17.906Z,60.64
2023-04-19T10:46:44.269Z,60.44
2023-04-19T10:49:11.178Z,60.33
2023-04-19T10:51:38.264Z,60.40
2023-04-19T10:54:05.022Z,60.19
2023-04-19T10:56:31.881Z,60.13
2023-04-19T10:58:58.446Z,60.63
2023-04-19T11:01:24.834Z,60.92
2023-04-19T11:03:51.372Z,60.99
2023-04-19T11:06:17.828Z,60.74
2023-04-19T11:08:44.499Z,61.25
2023-04-19T11:11:11.233Z,61.07
2023-04-19T11:13:37.577Z,61.10
2023-04-19T11:16:04.266Z,61.53
2023-04-19T11:18:30.788Z,61.44
2023-04-19T11:20:57.620Z,61.32
2023-04-19T11:23:23.960Z,61.47
2023-04-19T11:25:51.132Z,61.24
2023-04-19T11:28:17.595Z,61.23
2023-04-19T11:30:44.283Z,61.45
2023-04-19T11:33:10.600Z,61.78
2023-04-19T11:35:37.389Z,61.91
2023-04-19T11:38:04.495Z,61.72
2023-04-19T11:40:30.972Z,61.94
2023-04-19T11:42:57.337Z,61.96
2023-04-19T11:47:53.425Z,61.88
2023-04-19T11:50:19.983Z,62.17
2023-04-19T11:52:46.405Z,62.16
2023-04-19T11:55:13.000Z,62.08
2023-04-19T11:57:41.524Z,62.33
2023-04-19T12:00:08.339Z,62.43
2023-04-19T12:02:35.249Z,62.20
2023-04-19T12:05:02.062Z,62.34
2023-04-19T12:07:28.937Z,62.60
2023-04-19T12:09:55.428Z,62.55
2023-04-19T12:12:21.846Z,62.44
2023-04-19T12:14:48.188Z,62.69
2023-04-19T12:17:14.806Z,62.58
2023-04-19T12:19:41.615Z,62.65
2023-04-19T12:22:08.121Z,62.76
2023-04-19T12:24:34.427Z,62.61
2023-04-19T12:27:01.898Z,62.44
2023-04-19T12:29:29.603Z,62.31
2023-04-19T12:31:56.093Z,62.24
2023-04-19T12:34:22.639Z,62.40
2023-04-19T12:36:49.261Z,62.39
2023-04-19T12:39:16.065Z,62.41
2023-04-19T12:41:42.549Z,62.35
2023-04-19T12:44:08.867Z,62.39
2023-04-19T12:46:35.706Z,62.32
2023-04-19T12:49:02.263Z,62.12
2023-04-19T12:51:28.793Z,62.23
2023-04-19T12:53:55.227Z,62.35
2023-04-19T12:56:21.940Z,62.29
2023-04-19T12:58:48.540Z,62.19
2023-04-19T13:01:15.012Z,62.29
2023-04-19T13:03:41.823Z,62.36
2023-04-19T13:06:08.338Z,62.13
2023-04-19T13:08:44.854Z,62.31
2023-04-19T13:11:13.003Z,62.22
2023-04-19T13:13:39.332Z,62.28
2023-04-19T13:16:05.856Z,62.12
2023-04-19T13:18:32.221Z,62.23
2023-04-19T13:20:59.170Z,62.27
2023-04-19T13:23:25.532Z,62.24
2023-04-19T13:25:51.932Z,62.27
2023-04-19T13:28:18.261Z,62.23
2023-04-19T13:30:45.045Z,62.16
2023-04-19T13:33:11.468Z,62.06
2023-04-19T13:35:37.976Z,62.04
2023-04-19T13:38:04.435Z,62.09
2023-04-19T13:40:30.959Z,62.15
2023-04-19T13:42:57.386Z,62.00
2023-04-19T13:45:23.743Z,62.04
2023-04-19T13:47:50.141Z,61.87
2023-04-19T13:50:16.463Z,61.76
2023-04-19T13:52:43.038Z,61.97
2023-04-19T13:55:09.514Z,61.86
2023-04-19T13:57:36.214Z,62.05
2023-04-19T14:00:02.661Z,61.78
2023-04-19T14:02:29.721Z,61.93
2023-04-19T14:04:56.138Z,62.09
2023-04-19T14:07:22.641Z,61.98
2023-04-19T14:09:49.547Z,61.99
2023-04-19T14:12:16.550Z,61.67
2023-04-19T14:14:42.865Z,61.78
2023-04-19T14:17:09.588Z,61.93
2023-04-19T14:19:35.915Z,61.92
2023-04-19T14:22:02.236Z,61.69
2023-04-19T14:24:28.986Z,61.70
2023-04-19T14:27:07.247Z,61.71
2023-04-19T14:29:36.911Z,61.72
2023-04-19T14:32:17.206Z,61.70
2023-04-19T14:34:49.620Z,61.89
2023-04-19T14:37:16.023Z,61.91
2023-04-19T14:39:42.739Z,62.00
2023-04-19T14:42:09.572Z,61.70
2023-04-19T14:44:35.955Z,61.81
2023-04-19T14:47:02.694Z,61.96
2023-04-19T14:49:29.036Z,61.95
2023-04-19T14:51:55.338Z,62.07
2023-04-19T14:54:22.071Z,62.03
2023-04-19T14:56:48.447Z,61.95
2023-04-19T14:59:15.096Z,61.98
2023-04-19T15:01:42.167Z,62.03
2023-04-19T15:04:08.917Z,62.23
2023-04-19T15:06:35.397Z,62.08
2023-04-19T15:09:02.061Z,62.04
2023-04-19T15:11:28.474Z,62.17
2023-04-19T15:13:54.945Z,62.06
2023-04-19T15:16:21.425Z,62.09
2023-04-19T15:18:48.374Z,61.79
2023-04-19T15:21:15.062Z,62.18
2023-04-19T15:23:42.198Z,62.06
2023-04-19T15:26:08.591Z,61.85
2023-04-19T15:28:35.359Z,62.10
2023-04-19T15:31:01.803Z,61.95
2023-04-19T15:33:28.665Z,62.04
2023-04-19T15:35:54.964Z,61.79
2023-04-19T15:38:21.467Z,62.04
2023-04-19T15:40:48.512Z,62.08
2023-04-19T15:43:15.392Z,62.00
2023-04-19T15:45:42.377Z,61.92
2023-04-19T15:48:08.732Z,62.02
2023-04-19T15:50:35.296Z,61.97
2023-04-19T15:53:01.924Z,61.82
2023-04-19T15:55:28.486Z,61.64
2023-04-19T15:57:55.236Z,61.62
2023-04-19T16:00:21.553Z,61.58
2023-04-19T16:02:48.336Z,61.84
2023-04-19T16:05:15.047Z,61.94
2023-04-19T16:07:41.513Z,61.62
2023-04-19T16:10:07.837Z,61.67
2023-04-19T16:12:34.539Z,61.78
2023-04-19T16:15:01.290Z,61.56
2023-04-19T16:17:28.188Z,61.56
2023-04-19T16:19:54.677Z,61.73
2023-04-19T16:22:21.033Z,61.74
2023-04-19T16:24:47.957Z,61.75
2023-04-19T16:27:14.324Z,61.82
2023-04-19T16:29:40.643Z,61.71
2023-04-19T16:32:07.228Z,61.73
2023-04-19T16:34:34.117Z,61.56
2023-04-19T16:37:00.934Z,61.69
2023-04-19T16:39:27.337Z,61.85
2023-04-19T16:41:53.988Z,61.60
2023-04-19T16:44:20.438Z,61.79
2023-04-19T16:46:46.731Z,61.40
2023-04-19T16:49:13.139Z,61.49
2023-04-19T16:51:40.311Z,61.49
2023-04-19T16:54:07.391Z,61.42
2023-04-19T16:56:33.820Z,61.41
2023-04-19T16:59:00.572Z,61.30
2023-04-19T17:01:26.991Z,61.53
2023-04-19T17:03:53.677Z,61.52
2023-04-19T17:06:20.762Z,61.75
2023-04-19T17:08:47.073Z,61.58
2023-04-19T17:11:14.115Z,61.43
2023-04-19T17:13:40.534Z,61.62
2023-04-19T17:16:07.309Z,61.56
2023-04-19T17:18:33.988Z,61.38
2023-04-19T17:21:00.822Z,61.30
2023-04-19T17:23:27.539Z,61.35
2023-04-19T17:25:54.068Z,61.58
2023-04-19T17:28:20.666Z,61.70
2023-04-19T17:30:47.449Z,61.49
2023-04-19T17:33:13.969Z,61.48
2023-04-19T17:35:40.313Z,61.34
2023-04-19T17:38:07.038Z,61.58
2023-04-19T17:40:33.844Z,61.38
2023-04-19T17:43:00.520Z,61.51
2023-04-19T17:45:27.038Z,61.18
2023-04-19T17:47:55.316Z,61.50
2023-04-19T17:50:22.492Z,61.25
2023-04-19T17:52:49.623Z,61.42
2023-04-19T17:55:16.252Z,61.35
2023-04-19T17:57:42.743Z,61.48
2023-04-19T18:00:09.089Z,61.39
2023-04-19T18:02:35.964Z,61.44
2023-04-19T18:05:02.763Z,61.21
2023-04-19T18:07:29.271Z,61.09
2023-04-19T18:09:55.588Z,61.38
2023-04-19T18:12:22.076Z,61.41
2023-04-19T18:14:48.418Z,61.41
2023-04-19T18:17:14.791Z,61.25
2023-04-19T18:19:41.533Z,61.49
2023-04-19T18:22:08.189Z,61.46
2023-04-19T18:24:34.696Z,61.48
2023-04-19T18:27:01.339Z,61.14
2023-04-19T18:29:27.657Z,61.40
2023-04-19T18:31:54.691Z,61.38
2023-04-19T18:34:21.556Z,61.33
2023-04-19T18:36:47.950Z,61.46
2023-04-19T18:39:14.459Z,61.16
2023-04-19T18:41:41.055Z,61.47
2023-04-19T18:44:34.758Z,61.06
2023-04-19T18:46:53.885Z,61.42
2023-04-19T18:49:20.320Z,61.06
2023-04-19T18:51:46.946Z,61.24
2023-04-19T18:54:13.574Z,61.37
2023-04-19T18:57:14.785Z,61.44
2023-04-19T18:59:26.537Z,61.52
2023-04-19T19:01:53.167Z,61.44
2023-04-19T19:04:37.186Z,61.22
2023-04-19T19:07:18.174Z,61.37
2023-04-19T19:09:56.164Z,61.54
2023-04-19T19:12:23.170Z,61.27
2023-04-19T19:14:49.663Z,61.24
2023-04-19T19:17:16.703Z,61.24
2023-04-19T19:19:43.139Z,61.38
2023-04-19T19:22:25.008Z,61.12
2023-04-19T19:24:54.036Z,61.36
2023-04-19T19:27:20.421Z,61.25
2023-04-19T19:29:47.034Z,61.34
2023-04-19T19:32:13.804Z,61.22
2023-04-19T19:34:53.770Z,61.21
2023-04-19T19:37:21.044Z,61.35
2023-04-19T19:39:47.359Z,61.28
2023-04-19T19:42:14.096Z,61.35
2023-04-19T19:44:41.131Z,61.15
2023-04-19T19:47:10.211Z,61.21
2023-04-19T19:49:49.523Z,61.27
2023-04-19T19:52:23.371Z,61.48
2023-04-19T19:54:49.833Z,61.37
2023-04-19T19:59:51.363Z,61.35
2023-04-19T20:02:19.458Z,61.27
2023-04-19T20:04:46.092Z,61.32
2023-04-19T20:07:28.853Z,61.35
2023-04-19T20:09:59.146Z,61.46
2023-04-19T20:12:25.552Z,61.24
2023-04-19T20:14:51.928Z,61.37
2023-04-19T20:17:18.941Z,61.26
2023-04-19T20:19:45.364Z,61.43
2023-04-19T20:22:11.713Z,61.53
2023-04-19T20:24:38.572Z,61.42
2023-04-19T20:27:05.020Z,61.23
2023-04-19T20:29:31.350Z,61.50
2023-04-19T20:31:57.841Z,61.41
2023-04-19T20:34:24.313Z,61.50
2023-04-19T20:36:50.644Z,61.53
2023-04-19T20:39:17.673Z,61.65
2023-04-19T20:41:44.079Z,61.38
2023-04-19T20:44:10.488Z,61.50
2023-04-19T20:46:37.022Z,61.61
2023-04-19T20:49:03.551Z,61.45
2023-04-19T20:51:30.343Z,61.36
2023-04-19T20:53:57.227Z,61.16
2023-04-19T20:56:23.765Z,61.37
2023-04-19T20:58:50.262Z,61.45
2023-04-19T21:01:16.638Z,61.51
2023-04-19T21:03:43.486Z,61.47
2023-04-19T21:06:10.305Z,61.36
2023-04-19T21:08:37.218Z,61.50
2023-04-19T21:11:03.614Z,61.27
2023-04-19T21:13:30.256Z,61.40
2023-04-19T21:15:56.622Z,61.30
2023-04-19T21:18:23.475Z,61.32
2023-04-19T21:20:49.985Z,61.50
2023-04-19T21:23:16.809Z,61.45
2023-04-19T21:25:43.993Z,61.40
2023-04-19T21:28:10.480Z,61.37
2023-04-19T21:30:36.792Z,61.31
2023-04-19T21:33:03.962Z,61.30
2023-04-19T21:35:30.631Z,61.32
2023-04-19T21:37:56.961Z,61.51
2023-04-19T21:40:23.380Z,61.27
2023-04-19T21:42:50.256Z,61.36
2023-04-19T21:45:17.085Z,61.48
2023-04-19T21:47:44.138Z,61.37
2023-04-19T21:50:11.357Z,61.65
2023-04-19T21:52:38.206Z,61.48
2023-04-19T21:55:05.034Z,61.51
2023-04-19T21:57:31.423Z,61.40
2023-04-19T21:59:58.264Z,61.58
2023-04-19T22:02:24.786Z,61.49
2023-04-19T22:04:51.551Z,61.46
2023-04-19T22:07:18.112Z,61.30
2023-04-19T22:09:44.420Z,61.17
2023-04-19T22:12:10.854Z,61.55
2023-04-19T22:14:37.154Z,61.52
2023-04-19T22:17:03.553Z,61.40
2023-04-19T22:19:30.275Z,61.33
2023-04-19T22:21:56.603Z,61.51
2023-04-19T22:24:23.025Z,61.25
2023-04-19T22:26:49.480Z,61.59
2023-04-19T22:29:16.309Z,61.56
2023-04-19T22:31:42.816Z,61.60
2023-04-19T22:34:09.280Z,61.40
2023-04-19T22:36:35.761Z,61.56
2023-04-19T22:39:03.097Z,61.30
2023-04-19T22:41:29.892Z,61.23
2023-04-19T22:43:56.416Z,61.30
2023-04-19T22:46:22.789Z,61.26
2023-04-19T22:48:49.188Z,61.50
2023-04-19T22:51:15.981Z,61.60
2023-04-19T22:53:42.324Z,61.63
2023-04-19T22:56:08.651Z,61.42
2023-04-19T22:58:35.112Z,61.29
2023-04-19T23:01:01.579Z,61.35
2023-04-19T23:03:28.150Z,61.56
2023-04-19T23:05:54.543Z,61.58
2023-04-19T23:08:21.285Z,61.36
2023-04-19T23:10:47.784Z,61.51
2023-04-19T23:13:14.212Z,61.13
2023-04-19T23:15:41.141Z,61.53
2023-04-19T23:18:07.616Z,61.64
2023-04-19T23:20:34.050Z,61.60
2023-04-19T23:23:00.915Z,61.39
2023-04-19T23:25:27.370Z,61.36
2023-04-19T23:27:54.591Z,61.44
2023-04-19T23:30:20.978Z,61.66
2023-04-19T23:32:47.548Z,61.25
2023-04-19T23:35:13.986Z,61.36
2023-04-19T23:37:40.718Z,61.53
2023-04-19T23:40:07.157Z,61.38
2023-04-19T23:42:33.705Z,61.19
2023-04-19T23:45:00.155Z,61.31
2023-04-19T23:47:26.777Z,61.42
2023-04-19T23:49:53.381Z,61.61
2023-04-19T23:52:19.743Z,61.35
2023-04-19T23:54:46.722Z,61.38
2023-04-19T23:57:13.097Z,61.40
2023-04-19T23:59:39.494Z,61.52
